createdAt,value
2023-03-21T00:00:43.402Z,31.70
2023-03-21T00:03:11.292Z,27.65
2023-03-21T00:05:42.364Z,32.30
2023-03-21T00:08:09.916Z,28.15
2023-03-21T00:10:42.067Z,33.65
2023-03-21T00:13:16.008Z,32.38
2023-03-21T00:16:06.115Z,31.77
2023-03-21T00:18:46.743Z,32.38
2023-03-21T00:24:05.495Z,37.60
2023-03-21T00:26:33.390Z,33.25
2023-03-21T00:29:00.776Z,35.60
2023-03-21T00:31:27.872Z,31.20
2023-03-21T00:33:54.904Z,30.67
2023-03-21T00:36:21.930Z,27.60
2023-03-21T00:38:48.970Z,29.70
2023-03-21T00:41:26.378Z,29.25
2023-03-21T00:44:04.302Z,30.23
2023-03-21T00:46:43.647Z,36.85
2023-03-21T00:49:14.217Z,29.90
2023-03-21T00:51:43.829Z,33.67
2023-03-21T00:54:12.610Z,34.45
2023-03-21T00:56:39.564Z,29.50
2023-03-21T00:59:06.722Z,26.45
2023-03-21T01:01:33.782Z,31.25
2023-03-21T01:04:07.588Z,29.20
2023-03-21T01:06:40.399Z,29.88
2023-03-21T01:09:19.619Z,28.73
2023-03-21T01:11:46.712Z,30.85
2023-03-21T01:14:23.073Z,28.98
2023-03-21T01:16:54.040Z,31.92
2023-03-21T01:19:35.241Z,27.48
2023-03-21T01:22:08.914Z,27.35
2023-03-21T01:24:43.433Z,30.40
2023-03-21T01:27:13.882Z,33.58
2023-03-21T01:29:40.802Z,31.48
2023-03-21T01:32:07.822Z,36.17
2023-03-21T01:34:34.780Z,34.90
2023-03-21T01:37:01.824Z,35.40
2023-03-21T01:39:28.865Z,34.90
2023-03-21T01:41:55.890Z,30.83
2023-03-21T01:44:22.832Z,36.20
2023-03-21T01:52:23.561Z,31.15
2023-03-21T01:54:56.047Z,30.08
2023-03-21T01:57:43.499Z,33.00
2023-03-21T02:00:15.649Z,34.70
2023-03-21T02:02:52.228Z,36.45
2023-03-21T02:05:25.403Z,37.58
2023-03-21T02:07:53.264Z,28.88
2023-03-21T02:10:21.043Z,33.40
2023-03-21T02:12:48.450Z,31.75
2023-03-21T02:15:16.298Z,30.45
2023-03-21T02:17:53.951Z,40.03
2023-03-21T02:20:39.377Z,36.85
2023-03-21T02:23:24.164Z,41.40
2023-03-21T02:26:19.299Z,43.03
2023-03-21T02:29:22.053Z,46.08
2023-03-21T02:32:25.054Z,46.30
2023-03-21T02:35:14.242Z,47.83
2023-03-21T02:38:00.815Z,48.97
2023-03-21T02:40:43.038Z,50.15
2023-03-21T02:43:27.779Z,40.90
2023-03-21T02:46:15.085Z,49.28
2023-03-21T02:48:54.404Z,44.80
2023-03-21T02:51:24.403Z,46.72
2023-03-21T02:54:22.196Z,54.78
2023-03-21T02:56:47.346Z,45.17
2023-03-21T02:59:16.404Z,45.35
2023-03-21T03:01:43.798Z,51.22
2023-03-21T03:04:22.142Z,51.38
2023-03-21T03:07:24.733Z,48.55
2023-03-21T03:10:11.599Z,46.15
2023-03-21T03:12:53.959Z,47.40
2023-03-21T03:15:26.735Z,55.47
2023-03-21T03:18:08.953Z,50.33
2023-03-21T03:20:44.723Z,50.25
2023-03-21T03:23:28.019Z,42.42
2023-03-21T03:26:15.592Z,51.30
2023-03-21T03:28:47.729Z,49.47
2023-03-21T03:31:22.104Z,48.35
2023-03-21T03:33:52.432Z,49.20
2023-03-21T03:36:31.426Z,49.63
2023-03-21T03:39:04.645Z,44.80
2023-03-21T03:42:01.625Z,49.40
2023-03-21T03:44:24.301Z,41.58
2023-03-21T03:47:06.346Z,40.47
2023-03-21T03:49:39.939Z,44.35
2023-03-21T03:52:16.528Z,43.67
2023-03-21T03:54:45.561Z,45.20
2023-03-21T03:57:14.061Z,44.45
2023-03-21T03:59:43.861Z,46.53
2023-03-21T04:02:11.045Z,48.83
2023-03-21T04:04:38.669Z,47.45
2023-03-21T04:07:06.570Z,40.97
2023-03-21T04:09:43.492Z,46.17
2023-03-21T04:12:13.059Z,43.10
2023-03-21T04:14:45.750Z,41.15
2023-03-21T04:17:14.108Z,49.47
2023-03-21T04:19:41.054Z,42.38
2023-03-21T04:22:08.097Z,43.03
2023-03-21T04:24:37.677Z,43.15
2023-03-21T04:27:06.130Z,48.88
2023-03-21T04:29:33.628Z,43.30
2023-03-21T04:32:01.599Z,45.78
2023-03-21T04:34:29.233Z,39.00
2023-03-21T04:36:56.486Z,40.97
2023-03-21T04:39:24.825Z,36.67
2023-03-21T04:41:52.027Z,44.45
2023-03-21T04:44:19.231Z,36.38
2023-03-21T04:46:46.544Z,41.65
2023-03-21T04:49:13.548Z,39.45
2023-03-21T04:51:41.977Z,42.75
2023-03-21T04:54:11.718Z,37.60
2023-03-21T04:56:38.710Z,50.13
2023-03-21T04:59:16.845Z,37.75
2023-03-21T05:01:44.095Z,39.65
2023-03-21T05:04:14.135Z,46.17
2023-03-21T05:06:45.157Z,39.25
2023-03-21T05:11:41.361Z,41.55
2023-03-21T05:14:11.634Z,52.08
2023-03-21T05:16:45.296Z,42.97
2023-03-21T05:19:14.554Z,46.22
2023-03-21T05:21:42.317Z,42.03
2023-03-21T05:24:13.444Z,44.00
2023-03-21T05:26:45.833Z,42.47
2023-03-21T05:29:13.564Z,46.17
2023-03-21T05:31:40.537Z,38.38
2023-03-21T05:34:07.522Z,41.05
2023-03-21T05:36:36.176Z,40.58
2023-03-21T05:39:04.007Z,50.75
2023-03-21T05:41:31.125Z,50.72
2023-03-21T05:43:58.164Z,52.95
2023-03-21T05:46:25.226Z,48.28
2023-03-21T05:48:52.535Z,41.28
2023-03-21T05:51:19.543Z,49.67
2023-03-21T05:53:46.736Z,45.42
2023-03-21T05:56:13.695Z,37.33
2023-03-21T05:58:40.658Z,38.53
2023-03-21T06:01:07.978Z,33.22
2023-03-21T06:03:35.278Z,40.50
2023-03-21T06:06:03.668Z,38.75
2023-03-21T06:08:32.119Z,33.58
2023-03-21T06:10:59.127Z,36.13
2023-03-21T06:13:26.178Z,37.15
2023-03-21T06:15:53.296Z,39.28
2023-03-21T06:18:20.371Z,37.50
2023-03-21T06:20:47.294Z,35.75
2023-03-21T06:23:14.296Z,36.15
2023-03-21T06:25:41.312Z,35.45
2023-03-21T06:28:08.351Z,35.90
2023-03-21T06:30:35.518Z,34.15
2023-03-21T06:33:02.808Z,35.20
2023-03-21T06:35:31.209Z,32.67
2023-03-21T06:38:01.670Z,33.40
2023-03-21T06:40:28.716Z,36.35
2023-03-21T06:42:55.730Z,36.45
2023-03-21T06:45:22.788Z,35.67
2023-03-21T06:47:49.822Z,35.22
2023-03-21T06:50:17.182Z,32.40
2023-03-21T06:52:44.122Z,35.65
2023-03-21T06:55:11.258Z,33.63
2023-03-21T06:57:39.681Z,41.25
2023-03-21T07:00:09.144Z,33.28
2023-03-21T07:02:36.288Z,32.70
2023-03-21T07:05:05.319Z,31.42
2023-03-21T07:07:32.404Z,31.50
2023-03-21T07:09:59.403Z,31.08
2023-03-21T07:12:26.435Z,33.17
2023-03-21T07:14:53.398Z,32.95
2023-03-21T07:17:20.642Z,31.98
2023-03-21T07:19:47.690Z,31.85
2023-03-21T07:22:14.698Z,51.92
2023-03-21T07:24:41.746Z,55.85
2023-03-21T07:27:08.818Z,53.45
2023-03-21T07:29:36.657Z,62.20
2023-03-21T07:32:04.110Z,53.50
2023-03-21T07:34:33.400Z,62.45
2023-03-21T07:37:01.068Z,55.67
2023-03-21T07:39:28.471Z,51.13
2023-03-21T07:41:55.956Z,51.35
2023-03-21T07:44:24.203Z,56.13
2023-03-21T07:46:51.372Z,52.13
2023-03-21T07:49:18.364Z,49.53
2023-03-21T07:51:45.549Z,50.15
2023-03-21T07:54:12.622Z,50.88
2023-03-21T07:56:39.677Z,42.55
2023-03-21T07:59:07.636Z,36.05
2023-03-21T08:01:35.292Z,43.88
2023-03-21T08:04:02.346Z,38.55
2023-03-21T08:06:29.522Z,32.00
2023-03-21T08:08:56.636Z,24.85
2023-03-21T08:11:24.910Z,30.42
2023-03-21T08:13:51.957Z,25.83
2023-03-21T08:16:19.058Z,25.17
2023-03-21T08:18:46.010Z,30.83
2023-03-21T08:21:12.953Z,28.52
2023-03-21T08:23:40.089Z,25.23
2023-03-21T08:26:08.038Z,29.50
2023-03-21T08:28:36.898Z,25.00
2023-03-21T08:31:11.298Z,29.35
2023-03-21T08:33:38.881Z,26.88
2023-03-21T08:36:06.657Z,23.98
2023-03-21T08:38:34.819Z,25.83
2023-03-21T08:41:01.958Z,24.05
2023-03-21T08:43:29.562Z,24.40
2023-03-21T08:45:57.240Z,28.27
2023-03-21T08:48:24.446Z,26.48
2023-03-21T08:50:51.627Z,23.83
2023-03-21T08:53:18.642Z,26.05
2023-03-21T08:55:46.044Z,31.75
2023-03-21T08:58:13.097Z,31.40
2023-03-21T09:00:40.220Z,32.30
2023-03-21T09:03:07.262Z,27.90
2023-03-21T09:05:34.499Z,32.25
2023-03-21T09:08:05.732Z,31.85
2023-03-21T09:10:33.253Z,30.27
2023-03-21T09:13:00.378Z,30.67
2023-03-21T09:15:29.061Z,32.35
2023-03-21T09:17:58.928Z,33.08
2023-03-21T09:20:31.460Z,36.55
2023-03-21T09:22:59.979Z,36.67
2023-03-21T09:25:35.268Z,37.72
2023-03-21T09:28:05.373Z,41.60
2023-03-21T09:30:34.743Z,46.58
2023-03-21T09:33:06.697Z,46.30
2023-03-21T09:35:33.760Z,33.83
2023-03-21T09:38:01.624Z,39.83
2023-03-21T09:41:13.132Z,36.47
2023-03-21T09:43:58.456Z,36.38
2023-03-21T09:47:04.166Z,37.78
2023-03-21T09:50:11.217Z,42.85
2023-03-21T09:52:48.202Z,42.40
2023-03-21T09:55:23.010Z,37.70
2023-03-21T09:58:13.990Z,39.70
2023-03-21T10:00:46.718Z,36.90
2023-03-21T10:03:24.642Z,33.38
2023-03-21T10:05:53.145Z,38.13
2023-03-21T10:08:27.361Z,33.50
2023-03-21T10:11:01.532Z,36.17
2023-03-21T10:13:34.352Z,32.95
2023-03-21T10:16:11.243Z,32.15
2023-03-21T10:18:39.875Z,35.33
2023-03-21T10:21:07.558Z,29.88
2023-03-21T10:23:35.408Z,30.80
2023-03-21T10:26:08.219Z,30.65
2023-03-21T10:28:52.460Z,29.90
2023-03-21T10:31:25.560Z,32.78
2023-03-21T10:33:56.250Z,35.35
2023-03-21T10:36:33.486Z,33.20
2023-03-21T10:39:07.396Z,28.92
2023-03-21T10:41:35.232Z,30.88
2023-03-21T10:44:12.057Z,26.45
2023-03-21T10:46:39.252Z,24.92
2023-03-21T10:49:08.639Z,28.83
2023-03-21T10:51:38.066Z,25.17
2023-03-21T10:54:08.985Z,30.45
2023-03-21T10:59:09.215Z,29.83
2023-03-21T11:01:40.742Z,29.13
2023-03-21T11:04:18.636Z,28.05
2023-03-21T11:06:52.482Z,31.92
2023-03-21T11:09:22.222Z,23.45
2023-03-21T11:12:17.487Z,24.88
2023-03-21T11:14:51.192Z,27.40
2023-03-21T11:17:18.162Z,27.92
2023-03-21T11:19:50.539Z,24.67
2023-03-21T11:22:20.758Z,27.73
2023-03-21T11:24:52.641Z,25.63
2023-03-21T11:27:20.204Z,24.38
2023-03-21T11:29:51.325Z,24.75
2023-03-21T11:32:23.063Z,29.08
2023-03-21T11:35:05.689Z,26.27
2023-03-21T11:37:49.435Z,20.27
2023-03-21T11:40:26.731Z,22.80
2023-03-21T11:43:01.681Z,20.20
2023-03-21T11:45:36.115Z,20.70
2023-03-21T11:48:13.194Z,19.17
2023-03-21T11:50:43.909Z,20.13
2023-03-21T11:53:20.578Z,14.85
2023-03-21T11:55:50.488Z,21.20
2023-03-21T11:58:39.089Z,17.92
2023-03-21T12:01:10.818Z,19.13
2023-03-21T12:03:59.420Z,17.30
2023-03-21T12:06:34.404Z,20.15
2023-03-21T12:09:12.761Z,20.92
2023-03-21T12:11:52.698Z,17.25
2023-03-21T12:14:24.006Z,20.42
2023-03-21T12:17:06.207Z,17.48
2023-03-21T12:19:49.222Z,15.80
2023-03-21T12:22:33.038Z,18.27
2023-03-21T12:25:13.972Z,17.05
2023-03-21T12:27:55.406Z,15.20
2023-03-21T12:30:31.546Z,13.90
2023-03-21T12:33:27.115Z,14.57
2023-03-21T12:36:22.077Z,11.88
2023-03-21T12:39:09.340Z,15.88
2023-03-21T12:41:51.264Z,13.40
2023-03-21T12:44:22.681Z,12.90
2023-03-21T12:46:58.606Z,13.90
2023-03-21T12:49:39.870Z,14.68
2023-03-21T12:52:14.822Z,13.88
2023-03-21T12:54:47.619Z,13.02
2023-03-21T12:57:27.878Z,14.93
2023-03-21T13:00:03.239Z,11.07
2023-03-21T13:02:41.106Z,14.65
2023-03-21T13:05:18.619Z,14.20
2023-03-21T13:08:08.927Z,15.52
2023-03-21T13:10:37.715Z,11.95
2023-03-21T13:13:27.357Z,12.63
2023-03-21T13:16:20.715Z,11.40
2023-03-21T13:19:32.659Z,10.80
2023-03-21T13:22:16.377Z,15.02
2023-03-21T13:24:55.513Z,10.55
2023-03-21T13:27:30.280Z,13.48
2023-03-21T13:30:09.073Z,10.27
2023-03-21T13:32:40.798Z,9.30
2023-03-21T13:35:10.690Z,9.65
2023-03-21T13:37:46.707Z,8.45
2023-03-21T13:40:38.958Z,10.95
2023-03-21T13:43:27.566Z,9.80
2023-03-21T13:45:55.537Z,10.35
2023-03-21T13:48:32.023Z,10.77
2023-03-21T13:51:04.904Z,9.30
2023-03-21T13:53:40.231Z,9.65
2023-03-21T13:56:14.804Z,7.10
2023-03-21T13:58:44.862Z,9.05
2023-03-21T14:01:30.184Z,9.80
2023-03-21T14:04:10.046Z,10.02
2023-03-21T14:06:51.242Z,10.05
2023-03-21T14:09:38.157Z,9.02
2023-03-21T14:12:11.435Z,9.13
2023-03-21T14:14:44.043Z,8.80
2023-03-21T14:17:34.868Z,12.50
2023-03-21T14:20:13.519Z,8.27
2023-03-21T14:22:41.136Z,8.20
2023-03-21T14:25:15.855Z,9.65
2023-03-21T14:27:46.282Z,9.63
2023-03-21T14:30:23.253Z,10.77
2023-03-21T14:32:50.510Z,9.95
2023-03-21T14:35:24.268Z,10.90
2023-03-21T14:37:52.065Z,9.73
2023-03-21T14:40:25.949Z,11.52
2023-03-21T14:42:54.704Z,11.80
2023-03-21T14:45:23.404Z,14.07
2023-03-21T14:48:13.439Z,14.60
2023-03-21T14:50:46.797Z,15.90
2023-03-21T14:53:27.352Z,17.63
2023-03-21T14:56:09.369Z,14.25
2023-03-21T14:58:42.324Z,17.70
2023-03-21T15:01:16.507Z,19.65
2023-03-21T15:03:47.976Z,18.05
2023-03-21T15:06:15.203Z,16.45
2023-03-21T15:08:57.778Z,17.20
2023-03-21T15:11:36.873Z,16.70
2023-03-21T15:14:07.329Z,18.42
2023-03-21T15:16:35.681Z,16.35
2023-03-21T15:19:05.461Z,22.30
2023-03-21T15:21:38.419Z,21.00
2023-03-21T15:24:14.130Z,20.25
2023-03-21T15:26:46.316Z,20.45
2023-03-21T15:29:16.402Z,19.05
2023-03-21T15:31:44.395Z,22.95
2023-03-21T15:34:30.981Z,21.90
2023-03-21T15:37:05.306Z,25.33
2023-03-21T15:39:36.465Z,18.58
2023-03-21T15:42:07.663Z,22.70
2023-03-21T15:44:35.803Z,18.98
2023-03-21T15:47:03.005Z,18.80
2023-03-21T15:49:34.836Z,19.13
2023-03-21T15:52:05.959Z,23.08
2023-03-21T15:54:37.227Z,21.00
2023-03-21T15:57:20.075Z,22.33
2023-03-21T15:59:48.071Z,17.80
2023-03-21T16:02:23.366Z,21.27
2023-03-21T16:05:01.184Z,21.15
2023-03-21T16:07:34.603Z,18.42
2023-03-21T16:10:04.773Z,22.50
2023-03-21T16:12:31.964Z,26.50
2023-03-21T16:14:59.184Z,26.00
2023-03-21T16:17:37.907Z,20.45
2023-03-21T16:20:36.004Z,24.42
2023-03-21T16:23:03.633Z,30.15
2023-03-21T16:25:32.095Z,26.65
2023-03-21T16:27:59.793Z,24.70
2023-03-21T16:30:27.614Z,31.45
2023-03-21T16:32:54.746Z,28.65
2023-03-21T16:35:23.621Z,23.48
2023-03-21T16:37:51.036Z,28.73
2023-03-21T16:40:40.046Z,29.42
2023-03-21T16:43:08.065Z,26.85
2023-03-21T16:45:36.041Z,29.98
2023-03-21T16:48:03.998Z,31.00
2023-03-21T16:50:33.948Z,37.10
2023-03-21T16:53:02.118Z,47.00
2023-03-21T16:55:31.157Z,34.45
2023-03-21T16:57:58.179Z,31.23
2023-03-21T17:00:28.214Z,36.97
2023-03-21T17:02:56.854Z,34.45
2023-03-21T17:05:26.526Z,36.83
2023-03-21T17:07:54.797Z,39.95
2023-03-21T17:10:28.683Z,40.13
2023-03-21T17:12:55.767Z,36.47
2023-03-21T17:15:23.381Z,36.88
2023-03-21T17:17:50.528Z,29.17
2023-03-21T17:20:22.991Z,28.45
2023-03-21T17:22:55.711Z,37.28
2023-03-21T17:25:24.084Z,31.95
2023-03-21T17:27:53.287Z,30.67
2023-03-21T17:30:41.127Z,34.95
2023-03-21T17:33:08.794Z,34.70
2023-03-21T17:35:36.259Z,40.65
2023-03-21T17:38:04.678Z,37.33
2023-03-21T17:40:33.210Z,39.72
2023-03-21T17:43:01.809Z,48.35
2023-03-21T17:45:29.956Z,39.95
2023-03-21T17:47:57.387Z,44.97
2023-03-21T17:50:26.786Z,47.40
2023-03-21T17:52:56.759Z,49.80
2023-03-21T17:55:24.993Z,51.40
2023-03-21T17:57:53.162Z,47.60
2023-03-21T18:00:26.881Z,51.80
2023-03-21T18:02:54.561Z,48.80
2023-03-21T18:05:23.161Z,64.03
2023-03-21T18:08:09.893Z,53.13
2023-03-21T18:10:39.854Z,55.10
2023-03-21T18:13:07.249Z,58.97
2023-03-21T18:15:35.941Z,47.63
2023-03-21T18:18:05.391Z,62.35
2023-03-21T18:23:21.246Z,55.20
2023-03-21T18:25:49.160Z,62.30
2023-03-21T18:28:20.537Z,58.05
2023-03-21T18:33:40.802Z,64.25
2023-03-21T18:36:09.710Z,56.45
2023-03-21T18:38:37.296Z,60.28
2023-03-21T18:41:05.997Z,65.40
2023-03-21T18:46:20.916Z,59.38
2023-03-21T18:48:49.097Z,66.00
2023-03-21T18:51:17.840Z,54.80
2023-03-21T18:53:45.914Z,54.60
2023-03-21T18:56:46.882Z,60.67
2023-03-21T18:59:01.531Z,56.03
2023-03-21T19:01:29.109Z,56.13
2023-03-21T19:04:30.625Z,65.45
2023-03-21T19:06:48.531Z,53.85
2023-03-21T19:09:17.966Z,52.55
2023-03-21T19:11:46.008Z,60.20
2023-03-21T19:14:14.664Z,49.15
2023-03-21T19:17:11.406Z,53.97
2023-03-21T19:19:30.614Z,51.55
2023-03-21T19:21:57.991Z,50.50
2023-03-21T19:24:28.628Z,40.80
2023-03-21T19:26:56.217Z,47.97
2023-03-21T19:29:23.612Z,55.45
2023-03-21T19:31:51.529Z,45.95
2023-03-21T19:34:19.790Z,47.60
2023-03-21T19:36:51.426Z,49.50
2023-03-21T19:39:22.797Z,35.00
2023-03-21T19:41:58.795Z,49.10
2023-03-21T19:44:35.206Z,43.45
2023-03-21T19:47:02.351Z,47.03
2023-03-21T19:49:52.082Z,39.95
2023-03-21T19:52:17.332Z,29.50
2023-03-21T19:54:44.365Z,28.90
2023-03-21T19:57:11.534Z,39.47
2023-03-21T19:59:39.048Z,39.58
2023-03-21T20:02:31.077Z,38.22
2023-03-21T20:04:53.988Z,43.53
2023-03-21T20:07:21.397Z,34.58
2023-03-21T20:09:52.545Z,35.38
2023-03-21T20:12:22.145Z,34.78
2023-03-21T20:14:49.638Z,36.83
2023-03-21T20:17:18.803Z,27.25
2023-03-21T20:19:46.063Z,38.80
2023-03-21T20:22:24.673Z,36.88
2023-03-21T20:24:55.092Z,29.38
2023-03-21T20:27:25.491Z,36.30
2023-03-21T20:30:09.198Z,33.35
2023-03-21T20:32:41.796Z,32.15
2023-03-21T20:35:20.794Z,24.00
2023-03-21T20:37:54.497Z,32.33
2023-03-21T20:40:21.799Z,25.55
2023-03-21T20:42:50.336Z,30.40
2023-03-21T20:45:17.739Z,29.73
2023-03-21T20:47:45.164Z,33.92
2023-03-21T20:50:14.078Z,36.42
2023-03-21T20:53:06.880Z,29.73
2023-03-21T20:55:33.395Z,34.13
2023-03-21T20:58:02.242Z,31.73
2023-03-21T21:00:29.972Z,29.10
2023-03-21T21:02:58.283Z,28.13
2023-03-21T21:05:31.485Z,30.67
2023-03-21T21:08:01.504Z,23.13
2023-03-21T21:10:28.780Z,31.17
2023-03-21T21:12:55.913Z,26.33
2023-03-21T21:15:23.014Z,28.33
2023-03-21T21:18:08.346Z,32.58
2023-03-21T21:20:37.432Z,32.95
2023-03-21T21:23:05.318Z,20.27
2023-03-21T21:25:34.229Z,23.65
2023-03-21T21:28:02.090Z,27.23
2023-03-21T21:30:30.328Z,30.27
2023-03-21T21:32:59.772Z,33.22
2023-03-21T21:35:27.036Z,24.10
2023-03-21T21:37:54.116Z,24.83
2023-03-21T21:40:23.594Z,23.50
2023-03-21T21:42:50.964Z,31.35
2023-03-21T21:45:19.113Z,31.38
2023-03-21T21:47:46.736Z,27.98
2023-03-21T21:50:14.585Z,21.85
2023-03-21T21:52:43.905Z,34.17
2023-03-21T21:55:11.330Z,27.30
2023-03-21T21:57:39.957Z,29.23
2023-03-21T22:00:13.117Z,27.50
2023-03-21T22:02:41.215Z,26.83
2023-03-21T22:05:09.027Z,27.25
2023-03-21T22:07:37.692Z,28.27
2023-03-21T22:10:05.541Z,29.52
2023-03-21T22:12:32.659Z,25.33
2023-03-21T22:14:59.717Z,26.50
2023-03-21T22:17:26.706Z,21.58
2023-03-21T22:20:05.213Z,27.48
2023-03-21T22:22:34.662Z,24.13
2023-03-21T22:25:02.298Z,26.75
2023-03-21T22:27:30.823Z,23.02
2023-03-21T22:29:57.844Z,23.27
2023-03-21T22:32:24.869Z,26.75
2023-03-21T22:34:51.928Z,27.05
2023-03-21T22:37:18.910Z,22.42
2023-03-21T22:39:45.978Z,28.10
2023-03-21T22:42:13.052Z,25.92
2023-03-21T22:44:40.139Z,26.90
2023-03-21T22:47:09.676Z,22.13
2023-03-21T22:49:37.843Z,23.45
2023-03-21T22:52:06.341Z,20.45
2023-03-21T22:54:33.409Z,24.45
2023-03-21T22:57:00.592Z,25.05
2023-03-21T22:59:28.119Z,20.05
2023-03-21T23:01:55.468Z,24.92
2023-03-21T23:04:23.228Z,23.85
2023-03-21T23:06:50.497Z,17.80
2023-03-21T23:09:17.862Z,22.35
2023-03-21T23:11:49.076Z,28.75
2023-03-21T23:14:17.250Z,23.00
2023-03-21T23:16:45.180Z,22.73
2023-03-21T23:19:12.411Z,19.38
2023-03-21T23:21:40.622Z,23.88
2023-03-21T23:24:08.177Z,23.15
2023-03-21T23:26:35.498Z,18.75
2023-03-21T23:29:03.157Z,24.00
2023-03-21T23:31:33.151Z,24.08
2023-03-21T23:34:00.850Z,22.00
2023-03-21T23:36:28.124Z,22.95
2023-03-21T23:38:55.233Z,22.73
2023-03-21T23:41:24.032Z,25.42
2023-03-21T23:43:51.805Z,21.10
2023-03-21T23:46:19.763Z,23.70
2023-03-21T23:48:47.348Z,23.40
2023-03-21T23:51:16.786Z,22.77
2023-03-21T23:53:45.104Z,22.52
2023-03-21T23:56:18.002Z,19.67
2023-03-21T23:58:45.090Z,17.58
